Weather at Montreal / Pierre Elliott Trudeau International Airport

Public forecast

Using degrees Celsius for public forecast. Weather courtesy of forecast.io.

Current aviation weather report (METAR) for Montreal / Pierre Elliott Trudeau International Airport

Retrieved 2022/05/23 08:00 UTC (55 minutes ago):

CYUL 230800Z 03011KT 15SM BKN250 09/00 A3023 RMK CI5 SLP240

Aviation forecast (TAF) for Montreal / Pierre Elliott Trudeau International Airport

Retrieved 2022/05/23 09:45 UTC (0 seconds ago):

TAF CYUL 230840Z 2309/2406 03010KT P6SM SCT240 FM231800 VRB03KT P6SM SCT070 BECMG 2318/2320 16005KT BECMG 2403/2405 08005KT RMK NXT FCST BY 231200Z